Flight Track Log - Related Links

Times and Time Zones

All times are in EDT time to prevent confusion due to time zone crossing. See the AAL963 flight status page for this flight to view local times or setup timezone preferences in your user account.

Time Position Orientation Groundspeed Altitude Reporting Facility
EDT Latitude Longitude Course Direction KTS MPH feet Rate Location/Type
Mon 09:32:55 PM 32.8700 -97.0510 180° South 184 212 1,600  Level FlightAware ADS-B
Mon 09:33:19 PM 32.8500 -97.0510 180° South 189 217 2,200 1,125 Climbing FlightAware ADS-B
Mon 09:33:43 PM 32.8280 -97.0520 182° South 212 244 2,500 808 Climbing FlightAware ADS-B
Mon 09:34:11 PM 32.7980 -97.0520 180° South 243 280 2,900 1,222 Climbing FlightAware ADS-B
Mon 09:34:37 PM 32.7670 -97.0530 182° South 252 290 3,600 1,889 Climbing FlightAware ADS-B
Mon 09:35:05 PM 32.7350 -97.0540 182° South 256 295 4,600 2,000 Climbing FlightAware ADS-B
Mon 09:35:34 PM 32.7010 -97.0540 180° South 260 299 5,500 2,036 Climbing FlightAware ADS-B
Mon 09:36:01 PM 32.6670 -97.0550 181° South 265 305 6,500 2,036 Climbing FlightAware ADS-B
Mon 09:36:30 PM 32.6320 -97.0550 180° South 273 314 7,400 1,789 Climbing FlightAware ADS-B
Mon 09:36:58 PM 32.5970 -97.0470 169° South 284 327 8,200 1,684 Climbing FlightAware ADS-B
Mon 09:37:27 PM 32.5640 -97.0240 150° Southeast 292 336 9,000 1,714 Climbing FlightAware ADS-B
Mon 09:37:54 PM 32.5330 -97.0000 147° Southeast 296 341 9,800 1,905 Climbing FlightAware ADS-B
Mon 09:38:30 PM 32.4900 -96.9680 148° Southeast 301 346 11,000 1,792 Climbing FlightAware ADS-B
Mon 09:39:11 PM 32.4420 -96.9320 148° Southeast 309 356 12,100 1,643 Climbing FlightAware ADS-B
Mon 09:39:54 PM 32.3890 -96.8930 148° Southeast 316 364 13,300 1,500 Climbing FlightAware ADS-B
Mon 09:40:27 PM 32.3470 -96.8620 148° Southeast 328 377 14,000 1,013 Climbing FlightAware ADS-B
Mon 09:41:11 PM 32.2860 -96.8190 149° Southeast 358 412 14,600 929 Climbing FlightAware ADS-B
Mon 09:41:51 PM 32.2230 -96.7910 159° South 380 437 15,300 896 Climbing FlightAware ADS-B
Mon 09:42:18 PM 32.1746 -96.7734 163° South 398 458 15,600 900 Climbing FlightAware ADS-B
Mon 09:42:51 PM 32.1154 -96.7512 162° South 416 479 16,200 1,297 Climbing FlightAware ADS-B
Mon 09:43:32 PM 32.0387 -96.7220 162° South 425 489 17,200 1,551 Climbing FlightAware ADS-B
Mon 09:44:20 PM 31.9473 -96.6872 162° South 430 495 18,500 1,519 Climbing FlightAware ADS-B
Mon 09:44:51 PM 31.8876 -96.6645 162° South 437 503 19,200 1,429 Climbing FlightAware ADS-B
Mon 09:45:23 PM 31.8270 -96.6404 161° South 443 510 20,000 1,333 Climbing FlightAware ADS-B
Mon 09:46:03 PM 31.7488 -96.6078 160° South 446 513 20,800 1,286 Climbing FlightAware ADS-B
Mon 09:46:33 PM 31.6883 -96.5828 161° South 459 528 21,500 1,292 Climbing FlightAware ADS-B
Mon 09:47:08 PM 31.6169 -96.5538 161° South 464 534 22,200 1,273 Climbing FlightAware ADS-B
Mon 09:47:39 PM 31.5537 -96.5280 161° South 467 537 22,900 1,180 Climbing FlightAware ADS-B
Mon 09:48:09 PM 31.4917 -96.5032 161° South 473 544 23,400 1,065 Climbing FlightAware ADS-B
Mon 09:48:41 PM 31.4247 -96.4783 162° South 479 551 24,000 1,048 Climbing FlightAware ADS-B
Mon 09:49:12 PM 31.3592 -96.4542 163° South 484 557 24,500 984 Climbing FlightAware ADS-B
Mon 09:49:42 PM 31.2949 -96.4304 162° South 487 560 25,000 984 Climbing FlightAware ADS-B
Mon 09:50:13 PM 31.2278 -96.4054 162° South 490 564 25,500 1,024 Climbing FlightAware ADS-B
Mon 09:50:23 PM 31.2065 -96.3960 159° South 491 565 25,700 1,263 Climbing FlightAware ADS-B
Mon 09:50:32 PM 31.1879 -96.3849 153° Southeast 492 566 25,900 1,000 Climbing FlightAware ADS-B
Mon 09:50:41 PM 31.1718 -96.3727 147° Southeast 492 566 26,000 818 Climbing FlightAware ADS-B
Mon 09:50:54 PM 31.1487 -96.3499 140° Southeast 493 567 26,200 720 Climbing FlightAware ADS-B
Mon 09:51:06 PM 31.1312 -96.3269 132° Southeast 494 568 26,300 857 Climbing FlightAware ADS-B
Mon 09:51:36 PM 31.0904 -96.2612 126° Southeast 495 570 26,800 1,000 Climbing FlightAware ADS-B
Mon 09:52:06 PM 31.0504 -96.1957 125° Southeast 499 574 27,300 1,000 Climbing FlightAware ADS-B
Mon 09:52:36 PM 31.0097 -96.1291 125° Southeast 500 575 27,800 984 Climbing FlightAware ADS-B
Mon 09:53:07 PM 30.9690 -96.0630 126° Southeast 501 577 28,300 787 Climbing FlightAware ADS-B
Mon 09:53:37 PM 30.9275 -95.9958 126° Southeast 506 582 28,600 750 Climbing FlightAware ADS-B
Mon 09:54:03 PM 30.8916 -95.9380 126° Southeast 508 585 29,000 766 Climbing FlightAware ADS-B
Mon 09:54:24 PM 30.8617 -95.8938 128° Southeast 512 589 29,200 649 Climbing FlightAware ADS-B
Mon 09:54:40 PM 30.8358 -95.8596 131° Southeast 515 593 29,400 625 Climbing FlightAware ADS-B
Mon 09:55:12 PM 30.7831 -95.7981 135° Southeast 518 596 29,700 677 Climbing FlightAware ADS-B
Mon 09:55:42 PM 30.7301 -95.7388 136° Southeast 522 601 30,100 984 Climbing FlightAware ADS-B
Mon 09:56:13 PM 30.6770 -95.6797 136° Southeast 518 596 30,700 1,219 Climbing FlightAware ADS-B
Mon 09:56:46 PM 30.6196 -95.6157 136° Southeast 513 590 31,400 1,048 Climbing FlightAware ADS-B
Mon 09:57:16 PM 30.5681 -95.5582 136° Southeast 513 590 31,800 871 Climbing FlightAware ADS-B
Mon 09:57:48 PM 30.5136 -95.4974 136° Southeast 511 588 32,300 857 Climbing FlightAware ADS-B
Mon 09:58:19 PM 30.4618 -95.4398 136° Southeast 511 588 32,700 689 Climbing FlightAware ADS-B
Mon 09:58:49 PM 30.4102 -95.3825 136° Southeast 511 588 33,000 300 Climbing FlightAware ADS-B
Mon 09:59:19 PM 30.3586 -95.3252 136° Southeast 509 586 33,000  Level FlightAware ADS-B
Mon 09:59:51 PM 30.3054 -95.2664 136° Southeast 508 585 33,000  Level FlightAware ADS-B
Mon 10:00:21 PM 30.2536 -95.2092 136° Southeast 507 583 33,000  Level FlightAware ADS-B
Mon 10:00:53 PM 30.1986 -95.1484 136° Southeast 506 582 33,000  Level FlightAware ADS-B
Mon 10:01:25 PM 30.1457 -95.0902 136° Southeast 506 582 33,000  Level FlightAware ADS-B
Mon 10:01:55 PM 30.0939 -95.0333 136° Southeast 507 583 33,000  Level FlightAware ADS-B
Mon 10:02:25 PM 30.0429 -94.9772 136° Southeast 507 583 33,000  Level FlightAware ADS-B
Mon 10:02:55 PM 29.9923 -94.9217 136° Southeast 507 583 33,000  Level FlightAware ADS-B
Mon 10:03:26 PM 29.9405 -94.8650 137° Southeast 508 585 33,000  Level FlightAware ADS-B
Mon 10:03:56 PM 29.8888 -94.8086 137° Southeast 508 585 33,000  Level FlightAware ADS-B
Mon 10:04:26 PM 29.8370 -94.7521 137° Southeast 508 585 33,000  Level FlightAware ADS-B
Mon 10:04:56 PM 29.7855 -94.6960 137° Southeast 507 583 33,000  Level FlightAware ADS-B
Mon 10:05:27 PM 29.7328 -94.6388 137° Southeast 507 583 33,000  Level FlightAware ADS-B
Mon 10:05:58 PM 29.6798 -94.5810 137° Southeast 507 583 33,000  Level FlightAware ADS-B
Mon 10:06:29 PM 29.6282 -94.5250 137° Southeast 506 582 33,000  Level FlightAware ADS-B
Mon 10:06:59 PM 29.5768 -94.4693 137° Southeast 506 582 33,000  Level FlightAware ADS-B
Mon 10:07:30 PM 29.5246 -94.4129 137° Southeast 505 581 33,000  Level FlightAware ADS-B
Mon 10:08:00 PM 29.4720 -94.3562 137° Southeast 504 580 33,000  Level FlightAware ADS-B
Mon 10:08:31 PM 29.4208 -94.3010 137° Southeast 505 581 33,000  Level FlightAware ADS-B
Mon 10:09:01 PM 29.3685 -94.2445 137° Southeast 505 581 33,000  Level FlightAware ADS-B
Mon 10:09:32 PM 29.3164 -94.1884 137° Southeast 504 580 33,000  Level FlightAware ADS-B
Mon 10:10:03 PM 29.2642 -94.1322 137° Southeast 505 581 33,000  Level FlightAware ADS-B
Mon 10:10:33 PM 29.2124 -94.0765 137° Southeast 505 581 33,000  Level FlightAware ADS-B
Mon 10:11:04 PM 29.1602 -94.0206 137° Southeast 505 581 33,000  Level FlightAware ADS-B
Mon 10:12:16 PM 29.0581 -93.9122 137° Southeast 503 579 33,000  Level Houston Center
Mon 10:13:17 PM 28.9453 -93.7914 137° Southeast 504 580 33,000  Level Houston Center
Mon 10:14:18 PM 28.8333 -93.6706 137° Southeast 503 579 33,000  Level Houston Center
Mon 10:15:20 PM 28.7297 -93.5614 137° Southeast 506 582 33,000  Level Houston Center
Mon 10:16:21 PM 28.6394 -93.4647 137° Southeast 501 577 33,000  Level Houston Center
Mon 10:17:22 PM 28.5261 -93.3444 137° Southeast 502 578 33,000  Level Houston Center
Mon 10:18:23 PM 28.4242 -93.2378 137° Southeast 499 574 33,000  Level Houston Center
Mon 10:19:24 PM 28.3139 -93.1225 137° Southeast 497 572 33,000 -49 Level Houston Center
Mon 10:20:25 PM 28.2119 -93.0161 137° Southeast 497 572 32,900 -49 Descending Houston Center
Mon 10:21:27 PM 28.1108 -92.9092 137° Southeast 498 573 32,900  Level Houston Center
Mon 10:22:28 PM 28.0092 -92.8039 138° Southeast 498 573 32,900  Level Houston Center
Mon 10:23:29 PM 27.9069 -92.7003 138° Southeast 494 568 32,900 49 Level Houston Center
Mon 10:24:30 PM 27.8061 -92.5939 137° Southeast 495 570 33,000 49 Climbing Houston Center
Mon 10:25:31 PM 27.7044 -92.4889 138° Southeast 497 572 33,000  Level Houston Center
Mon 10:26:32 PM 27.6039 -92.3847 137° Southeast 493 567 33,000  Level Houston Center
Mon 10:27:33 PM 27.5044 -92.2797 137° Southeast 491 565 33,000 -49 Level Houston Center
Mon 10:28:35 PM 27.4028 -92.1769 138° Southeast 491 565 32,900  Descending Houston Center
Mon 10:29:36 PM 27.2806 -92.0556 139° Southeast 490 564 33,000 49 Climbing Houston Center
Mon 10:30:37 PM 27.1767 -91.9583 140° Southeast 490 564 33,000  Level Houston Center
Mon 10:31:38 PM 27.0675 -91.8628 142° Southeast 493 567 33,000  Level Houston Center
Mon 10:32:39 PM 26.9572 -91.7689 143° Southeast 497 572 33,000  Level Houston Center
Mon 10:33:40 PM 26.8436 -91.6828 146° Southeast 496 571 33,000  Level Houston Center
Mon 10:34:42 PM 26.7194 -91.5892 146° Southeast 496 571 33,000  Level Houston Center
Mon 10:36:00 PM 26.5806 -91.4740 143° Southeast  Level FlightAware Approximate
Mon 10:43:00 PM 25.8243 -90.8696 145° Southeast  Level FlightAware Approximate
Mon 10:44:00 PM 25.7156 -90.7846 145° Southeast  Level FlightAware Approximate
Mon 10:45:00 PM 25.6068 -90.6998 145° Southeast  Level FlightAware Approximate
Mon 10:46:00 PM 25.4980 -90.6151 145° Southeast  Level FlightAware Approximate
Mon 10:47:00 PM 25.3890 -90.5308 145° Southeast  Level FlightAware Approximate
Mon 10:48:00 PM 25.2800 -90.4467 145° Southeast  Level FlightAware Approximate
Mon 10:49:00 PM 25.1709 -90.3627 145° Southeast  Level FlightAware Approximate
Mon 10:50:00 PM 25.0618 -90.2788 145° Southeast  Level FlightAware Approximate
Mon 10:51:00 PM 24.9527 -90.1951 145° Southeast  Level FlightAware Approximate
Mon 10:52:00 PM 24.8434 -90.1115 145° Southeast  Level FlightAware Approximate
Mon 10:53:00 PM 24.7342 -90.0281 145° Southeast  Level FlightAware Approximate
Mon 10:54:00 PM 24.6248 -89.9449 145° Southeast  Level FlightAware Approximate
Mon 10:55:00 PM 24.5155 -89.8618 145° Southeast  Level FlightAware Approximate
Mon 10:56:00 PM 24.4089 -89.7788 146° Southeast  Level FlightAware Approximate
Mon 10:57:00 PM 24.3001 -89.6991 146° Southeast  Level FlightAware Approximate
Mon 10:58:00 PM 24.1912 -89.6196 146° Southeast  Level FlightAware Approximate
Mon 10:59:00 PM 24.0823 -89.5402 146° Southeast  Level FlightAware Approximate
Mon 11:00:00 PM 23.9744 -89.4591 145° Southeast  Level FlightAware Approximate
Mon 11:01:00 PM 23.8669 -89.3775 145° Southeast  Level FlightAware Approximate
Mon 11:02:00 PM 23.7593 -89.2961 145° Southeast  Level FlightAware Approximate
Mon 11:03:00 PM 23.6518 -89.2148 145° Southeast  Level FlightAware Approximate
Mon 11:03:54 PM 23.4800 -89.0830 145° Southeast 484 557 33,000  Level FlightAware ADS-B
Mon 11:04:00 PM 23.5442 -89.1336 145° Southeast  Level FlightAware Approximate
Mon 11:04:38 PM 23.3990 -89.0230 146° Southeast 484 557 33,000  Level FlightAware ADS-B
Mon 11:05:18 PM 23.3260 -88.9680 145° Southeast 483 556 33,000  Level FlightAware ADS-B
Mon 11:05:51 PM 23.2750 -88.9300 146° Southeast 483 556 33,000  Level FlightAware ADS-B
Mon 11:06:38 PM 23.1780 -88.8580 146° Southeast 483 556 33,000  Level FlightAware ADS-B
Mon 11:07:30 PM 23.0970 -88.7970 145° Southeast 483 556 33,000  Level FlightAware ADS-B
Mon 11:08:14 PM 23.0000 -88.7260 146° Southeast 481 554 33,000  Level FlightAware ADS-B
Mon 11:08:56 PM 22.9290 -88.6740 146° Southeast 481 554 33,000  Level FlightAware ADS-B
Mon 11:09:31 PM 22.8620 -88.6240 145° Southeast 480 552 33,000  Level FlightAware ADS-B
Mon 11:10:15 PM 22.7780 -88.5620 146° Southeast 479 551 33,000  Level FlightAware ADS-B
Mon 11:10:56 PM 22.7060 -88.5090 146° Southeast 478 550 33,000  Level FlightAware ADS-B
Mon 11:11:35 PM 22.6310 -88.4540 146° Southeast 478 550 33,000  Level FlightAware ADS-B
Mon 11:12:15 PM 22.5630 -88.3940 141° Southeast 478 550 33,000  Level FlightAware ADS-B
Mon 11:12:51 PM 22.5060 -88.3360 137° Southeast 478 550 33,000  Level FlightAware ADS-B
Mon 11:13:31 PM 22.4470 -88.2760 137° Southeast 477 549 33,000  Level FlightAware ADS-B
Mon 11:14:19 PM 22.3830 -88.2100 136° Southeast 476 548 33,000  Level FlightAware ADS-B
Mon 11:14:55 PM 22.3350 -88.1600 136° Southeast 476 548 33,000  Level FlightAware ADS-B
Mon 11:15:43 PM 22.2700 -88.0920 136° Southeast 476 548 33,000  Level FlightAware ADS-B
Mon 11:16:20 PM 22.2200 -88.0400 136° Southeast 476 548 33,000  Level FlightAware ADS-B
Mon 11:17:00 PM 22.1190 -87.9440 139° Southeast 475 547 33,000  Level FlightAware ADS-B
Mon 11:17:41 PM 22.0490 -87.8720 136° Southeast 475 547 33,000  Level FlightAware ADS-B
Mon 11:18:31 PM 21.9710 -87.7950 138° Southeast 474 545 33,000  Level FlightAware ADS-B
Mon 11:19:15 PM 21.8900 -87.7140 137° Southeast 473 544 33,000  Level FlightAware ADS-B
Mon 11:19:49 PM 21.8410 -87.6640 137° Southeast 473 544 33,000  Level FlightAware ADS-B
Mon 11:20:37 PM 21.7610 -87.5850 137° Southeast 473 544 33,000  Level FlightAware ADS-B
Mon 11:21:17 PM 21.6960 -87.5210 138° Southeast 474 545 33,000  Level FlightAware ADS-B
Mon 11:21:52 PM 21.6490 -87.4740 137° Southeast 474 545 33,000  Level FlightAware ADS-B
Mon 11:22:50 PM 21.5420 -87.3670 137° Southeast 475 547 33,000  Level FlightAware ADS-B
Mon 11:23:38 PM 21.4640 -87.2910 138° Southeast 475 547 33,000  Level FlightAware ADS-B
Mon 11:24:18 PM 21.4000 -87.2270 137° Southeast 474 545 33,000  Level FlightAware ADS-B
Mon 11:24:54 PM 21.3400 -87.1690 138° Southeast 474 545 33,000  Level FlightAware ADS-B
Mon 11:25:38 PM 21.2700 -87.0990 137° Southeast 476 548 33,000  Level FlightAware ADS-B
Mon 11:26:14 PM 21.2110 -87.0410 137° Southeast 477 549 33,000  Level FlightAware ADS-B
Mon 11:26:56 PM 21.1420 -86.9730 137° Southeast 477 549 33,000  Level FlightAware ADS-B
Mon 11:27:36 PM 21.0760 -86.9090 138° Southeast 478 550 33,000  Level FlightAware ADS-B
Mon 11:28:16 PM 21.0120 -86.8460 137° Southeast 478 550 33,000  Level FlightAware ADS-B
Mon 11:28:52 PM 20.9520 -86.7880 138° Southeast 478 550 33,000  Level FlightAware ADS-B
Mon 11:29:36 PM 20.8810 -86.7190 138° Southeast 478 550 33,000  Level FlightAware ADS-B
Mon 11:30:16 PM 20.8150 -86.6540 137° Southeast 479 551 33,000  Level FlightAware ADS-B
Mon 11:30:50 PM 20.7600 -86.6010 138° Southeast 479 551 33,000  Level FlightAware ADS-B
Mon 11:31:32 PM 20.6900 -86.5330 138° Southeast 479 551 33,000  Level FlightAware ADS-B
Mon 11:32:17 PM 20.6160 -86.4620 138° Southeast 481 554 33,000  Level FlightAware ADS-B
Mon 11:32:59 PM 20.5460 -86.3940 138° Southeast 480 552 33,000  Level FlightAware ADS-B
Mon 11:33:42 PM 20.4840 -86.3330 137° Southeast 480 552 33,000  Level FlightAware ADS-B
Mon 11:34:22 PM 20.4180 -86.2700 138° Southeast 481 554 33,000  Level FlightAware ADS-B
Mon 11:34:57 PM 20.3500 -86.2060 139° Southeast 481 554 33,000  Level FlightAware ADS-B
Mon 11:35:34 PM 20.2990 -86.1550 137° Southeast 481 554 33,000  Level FlightAware ADS-B
Mon 11:36:21 PM 20.2130 -86.0740 139° Southeast 482 555 33,000  Level FlightAware ADS-B
Mon 11:37:05 PM 20.1390 -86.0040 138° Southeast 482 555 33,000  Level FlightAware ADS-B
Mon 11:37:45 PM 20.0740 -85.9410 138° Southeast 482 555 33,000 146 Level FlightAware ADS-B
Mon 11:38:27 PM 20.0020 -85.8730 138° Southeast 483 556 33,200 643 Climbing FlightAware ADS-B
Mon 11:39:09 PM 19.9330 -85.8070 138° Southeast 481 554 33,900 1,000 Climbing FlightAware ADS-B
Mon 11:39:51 PM 19.8620 -85.7410 139° Southeast 480 552 34,600 846 Climbing FlightAware ADS-B
Mon 11:40:27 PM 19.8030 -85.6850 138° Southeast 480 552 35,000 316 Climbing FlightAware ADS-B
Mon 11:41:07 PM 19.7360 -85.6220 138° Southeast 478 550 35,000  Level FlightAware ADS-B
Mon 11:41:46 PM 19.6770 -85.5660 138° Southeast 478 550 35,000  Level FlightAware ADS-B
Mon 11:42:25 PM 19.6090 -85.5020 138° Southeast 478 550 35,000  Level FlightAware ADS-B
Mon 11:43:15 PM 19.5270 -85.4260 139° Southeast 479 551 35,000  Level FlightAware ADS-B
Mon 11:44:05 PM 19.4410 -85.3460 139° Southeast 480 552 35,000  Level FlightAware ADS-B
Mon 11:44:45 PM 19.3740 -85.2820 138° Southeast 481 554 35,000  Level FlightAware ADS-B
Mon 11:45:29 PM 19.3020 -85.2150 139° Southeast 481 554 35,000  Level FlightAware ADS-B
Mon 11:46:23 PM 19.2190 -85.1370 138° Southeast 480 552 35,000  Level FlightAware ADS-B
Mon 11:46:59 PM 19.1690 -85.0890 138° Southeast 480 552 35,000  Level FlightAware ADS-B
Mon 11:47:48 PM 19.1000 -85.0240 138° Southeast 480 552 35,000  Level FlightAware ADS-B
Mon 11:48:25 PM 19.0480 -84.9740 138° Southeast 480 552 35,000  Level FlightAware ADS-B
Mon 11:49:13 PM 18.9810 -84.9100 138° Southeast 480 552 35,000  Level FlightAware ADS-B
Mon 11:49:50 PM 18.9290 -84.8610 138° Southeast 480 552 35,000  Level FlightAware ADS-B
Mon 11:50:38 PM 18.8620 -84.7970 138° Southeast 480 552 35,000  Level FlightAware ADS-B
Mon 11:51:14 PM 18.8110 -84.7490 138° Southeast 480 552 35,000  Level FlightAware ADS-B
Mon 11:51:50 PM 18.7610 -84.7010 138° Southeast 480 552 35,000  Level FlightAware ADS-B
Mon 11:52:38 PM 18.6930 -84.6370 138° Southeast 480 552 35,000  Level FlightAware ADS-B
Mon 11:53:14 PM 18.6430 -84.5890 138° Southeast 480 552 35,000  Level FlightAware ADS-B
Mon 11:54:14 PM 18.5580 -84.5090 138° Southeast 480 552 35,000  Level FlightAware ADS-B
Mon 11:54:51 PM 18.5070 -84.4590 137° Southeast 480 552 35,000  Level FlightAware ADS-B
Mon 11:55:39 PM 18.4390 -84.3950 138° Southeast 480 552 35,000 26 Level FlightAware ADS-B
Mon 11:58:00 PM 18.2138 -84.1745 137° Southeast  Level Estimated
Mon 11:59:00 PM 18.1222 -84.0762 134° Southeast  Level FlightAware Approximate
Tue 12:00:00 AM 18.0307 -83.9779 134° Southeast  Level FlightAware Approximate
Tue 12:01:00 AM 17.9390 -83.8797 134° Southeast  Level FlightAware Approximate
Tue 12:02:00 AM 17.8474 -83.7816 134° Southeast  Level FlightAware Approximate
Tue 12:03:00 AM 17.7556 -83.6837 135° Southeast  Level FlightAware Approximate
Tue 12:04:00 AM 17.6639 -83.5858 135° Southeast  Level FlightAware Approximate
Tue 12:05:00 AM 17.5720 -83.4880 135° Southeast  Level FlightAware Approximate
Tue 12:06:00 AM 17.4801 -83.3904 135° Southeast  Level FlightAware Approximate
Tue 12:07:00 AM 17.3882 -83.2928 135° Southeast  Level FlightAware Approximate
Tue 12:08:00 AM 17.2962 -83.1953 135° Southeast  Level FlightAware Approximate
Tue 12:09:00 AM 17.2042 -83.0979 135° Southeast  Level FlightAware Approximate
Tue 12:10:00 AM 17.1122 -83.0006 135° Southeast  Level FlightAware Approximate
Tue 12:11:00 AM 17.0201 -82.9034 135° Southeast  Level FlightAware Approximate
Tue 12:12:00 AM 16.9279 -82.8064 135° Southeast  Level FlightAware Approximate
Tue 12:13:00 AM 16.8357 -82.7094 135° Southeast  Level FlightAware Approximate
Tue 12:14:00 AM 16.7435 -82.6124 135° Southeast  Level FlightAware Approximate
Tue 12:15:00 AM 16.6512 -82.5156 135° Southeast  Level FlightAware Approximate
Tue 12:16:00 AM 16.5588 -82.4189 135° Southeast  Level FlightAware Approximate
Tue 12:17:00 AM 16.4664 -82.3223 135° Southeast  Level FlightAware Approximate
Tue 12:18:00 AM 16.3740 -82.2258 135° Southeast  Level FlightAware Approximate
Tue 12:19:00 AM 16.2757 -82.1288 138° Southeast  Level FlightAware Approximate
Tue 12:20:00 AM 16.1788 -82.0372 138° Southeast  Level FlightAware Approximate
Tue 12:21:00 AM 16.0818 -81.9458 138° Southeast  Level FlightAware Approximate
Tue 12:22:00 AM 15.9849 -81.8544 138° Southeast  Level FlightAware Approximate
Tue 12:23:00 AM 15.8879 -81.7631 138° Southeast  Level FlightAware Approximate
Tue 12:24:00 AM 15.7908 -81.6719 138° Southeast  Level FlightAware Approximate
Tue 12:25:00 AM 15.6937 -81.5808 138° Southeast  Level FlightAware Approximate
Tue 12:26:00 AM 15.5966 -81.4898 138° Southeast  Level FlightAware Approximate
Tue 12:27:00 AM 15.4994 -81.3989 138° Southeast  Level FlightAware Approximate
Tue 12:28:00 AM 15.4022 -81.3080 138° Southeast  Level FlightAware Approximate
Tue 12:29:00 AM 15.3050 -81.2172 138° Southeast  Level FlightAware Approximate
Tue 12:30:00 AM 15.2077 -81.1266 138° Southeast  Level FlightAware Approximate
Tue 12:31:00 AM 15.1104 -81.0360 138° Southeast  Level FlightAware Approximate
Tue 12:32:00 AM 15.0131 -80.9455 138° Southeast  Level FlightAware Approximate
Tue 12:33:00 AM 14.9155 -80.8552 138° Southeast  Level FlightAware Approximate
Tue 12:34:00 AM 14.8180 -80.7650 138° Southeast  Level FlightAware Approximate
Tue 12:35:00 AM 14.7203 -80.6749 138° Southeast  Level FlightAware Approximate
Tue 12:36:00 AM 14.6227 -80.5849 138° Southeast  Level FlightAware Approximate
Tue 12:37:00 AM 14.5250 -80.4950 138° Southeast  Level FlightAware Approximate
Tue 12:38:00 AM 14.4270 -80.4048 138° Southeast  Level FlightAware Approximate
Tue 12:39:00 AM 14.3289 -80.3147 138° Southeast  Level FlightAware Approximate
Tue 12:40:00 AM 14.2307 -80.2247 138° Southeast  Level FlightAware Approximate
Tue 12:41:00 AM 14.1326 -80.1348 138° Southeast  Level FlightAware Approximate
Tue 12:42:00 AM 14.0344 -80.0450 138° Southeast  Level FlightAware Approximate
Tue 12:43:00 AM 13.9361 -79.9552 138° Southeast  Level FlightAware Approximate
Tue 12:44:00 AM 13.8379 -79.8655 138° Southeast  Level FlightAware Approximate
Tue 12:45:00 AM 13.7396 -79.7759 138° Southeast  Level FlightAware Approximate
Tue 12:46:00 AM 13.6413 -79.6863 138° Southeast  Level FlightAware Approximate
Tue 12:47:00 AM 13.5429 -79.5968 139° Southeast  Level FlightAware Approximate
Tue 12:48:00 AM 13.4445 -79.5074 139° Southeast  Level FlightAware Approximate
Tue 12:49:00 AM 13.3461 -79.4181 139° Southeast  Level FlightAware Approximate
Tue 12:50:00 AM 13.2477 -79.3289 139° Southeast  Level FlightAware Approximate
Tue 12:51:00 AM 13.1492 -79.2397 139° Southeast  Level FlightAware Approximate
Tue 12:52:00 AM 13.0507 -79.1506 139° Southeast  Level FlightAware Approximate
Tue 12:53:00 AM 12.9522 -79.0615 139° Southeast  Level FlightAware Approximate
Tue 12:54:00 AM 12.8537 -78.9725 139° Southeast  Level FlightAware Approximate
Tue 12:55:00 AM 12.7551 -78.8835 139° Southeast  Level FlightAware Approximate
Tue 12:56:00 AM 12.6565 -78.7946 139° Southeast  Level FlightAware Approximate
Tue 12:57:00 AM 12.5579 -78.7058 139° Southeast  Level FlightAware Approximate
Tue 12:58:00 AM 12.4593 -78.6171 139° Southeast  Level FlightAware Approximate
Tue 12:59:00 AM 12.3606 -78.5284 139° Southeast  Level FlightAware Approximate
Tue 01:00:00 AM 12.2619 -78.4397 139° Southeast  Level FlightAware Approximate
Tue 01:01:00 AM 12.1632 -78.3512 139° Southeast  Level FlightAware Approximate
Tue 01:02:00 AM 12.0644 -78.2627 139° Southeast  Level FlightAware Approximate
Tue 01:03:00 AM 11.9657 -78.1743 139° Southeast  Level FlightAware Approximate
Tue 01:04:00 AM 11.8668 -78.0859 139° Southeast  Level FlightAware Approximate
Tue 01:05:00 AM 11.7680 -77.9976 139° Southeast  Level FlightAware Approximate
Tue 01:06:00 AM 11.6692 -77.9094 139° Southeast  Level FlightAware Approximate
Tue 01:07:00 AM 11.5703 -77.8212 139° Southeast  Level FlightAware Approximate
Tue 01:08:00 AM 11.4714 -77.7331 139° Southeast  Level FlightAware Approximate
Tue 01:09:00 AM 11.3725 -77.6450 139° Southeast  Level FlightAware Approximate
Tue 01:10:00 AM 11.2735 -77.5570 139° Southeast  Level FlightAware Approximate
Tue 01:11:00 AM 11.1746 -77.4690 139° Southeast  Level FlightAware Approximate
Tue 01:12:00 AM 11.0756 -77.3811 139° Southeast  Level FlightAware Approximate
Tue 01:12:01 AM 10.5020 -76.9910 139° Southeast 495 570 37,000  Level FlightAware ADS-B
Tue 01:12:39 AM 10.4340 -76.9280 138° Southeast 495 570 37,000  Level FlightAware ADS-B
Tue 01:13:24 AM 10.3600 -76.8580 137° Southeast 493 567 37,000  Level FlightAware ADS-B
Tue 01:14:09 AM 10.2830 -76.7880 138° Southeast 493 567 37,000  Level FlightAware ADS-B
Tue 01:14:44 AM 10.2260 -76.7350 138° Southeast 493 567 37,000  Level FlightAware ADS-B
Tue 01:15:25 AM 10.1650 -76.6770 137° Southeast 492 566 37,000  Level FlightAware ADS-B
Tue 01:16:01 AM 10.1140 -76.6290 137° Southeast 492 566 37,000  Level FlightAware ADS-B
Tue 01:16:49 AM 10.0460 -76.5650 137° Southeast 492 566 37,000  Level FlightAware ADS-B
Tue 01:17:25 AM 9.9950 -76.5170 137° Southeast 492 566 37,000  Level FlightAware ADS-B
Tue 01:18:01 AM 9.9440 -76.4680 137° Southeast 492 566 37,000  Level FlightAware ADS-B
Tue 01:18:50 AM 9.8750 -76.4030 137° Southeast 492 566 37,000  Level FlightAware ADS-B
Tue 01:19:26 AM 9.8240 -76.3540 137° Southeast 492 566 37,000  Level FlightAware ADS-B
Tue 01:20:05 AM 9.6940 -76.2420 140° Southeast 485 558 37,000  Level FlightAware ADS-B
Tue 01:21:02 AM 9.6070 -76.1610 137° Southeast 483 556 37,000  Level FlightAware ADS-B
Tue 01:21:47 AM 9.5280 -76.0880 138° Southeast 480 552 37,000  Level FlightAware ADS-B
Tue 01:22:27 AM 9.4550 -76.0210 138° Southeast 478 550 37,000  Level FlightAware ADS-B
Tue 01:23:07 AM 9.3960 -75.9670 138° Southeast 477 549 37,000  Level FlightAware ADS-B
Tue 01:23:47 AM 9.3260 -75.9030 138° Southeast 476 548 37,000  Level FlightAware ADS-B
Tue 01:24:52 AM 9.2240 -75.8080 137° Southeast 476 548 37,000  Level FlightAware ADS-B
Tue 01:25:32 AM 9.1560 -75.7470 138° Southeast 476 548 37,000  Level FlightAware ADS-B
Tue 01:26:25 AM 9.0730 -75.6700 138° Southeast 476 548 37,000  Level FlightAware ADS-B
Tue 01:27:02 AM 9.0220 -75.6230 138° Southeast 476 548 37,000  Level FlightAware ADS-B
Tue 01:27:49 AM 8.9560 -75.5640 139° Southeast 476 548 37,000  Level FlightAware ADS-B
Tue 01:28:29 AM 8.8790 -75.4920 137° Southeast 473 544 37,000  Level FlightAware ADS-B
Tue 01:29:42 AM 8.7530 -75.3760 138° Southeast 472 543 37,000  Level FlightAware ADS-B
Tue 01:30:37 AM 8.6630 -75.2940 138° Southeast 473 544 37,000  Level FlightAware ADS-B
Tue 01:31:17 AM 8.5950 -75.2320 138° Southeast 473 544 37,000  Level FlightAware ADS-B
Tue 01:31:57 AM 8.5280 -75.1710 138° Southeast 473 544 37,000  Level FlightAware ADS-B
Tue 01:32:37 AM 8.4690 -75.1170 138° Southeast 472 543 37,000  Level FlightAware ADS-B
Tue 01:33:17 AM 8.4000 -75.0530 137° Southeast 473 544 37,000  Level FlightAware ADS-B
Tue 01:33:52 AM 8.3420 -75.0000 138° Southeast 473 544 37,000  Level FlightAware ADS-B
Tue 01:34:37 AM 8.2680 -74.9330 138° Southeast 472 543 37,000  Level FlightAware ADS-B
Tue 01:35:17 AM 8.2050 -74.8750 138° Southeast 473 544 37,000  Level FlightAware ADS-B
Tue 01:35:52 AM 8.1540 -74.8290 138° Southeast 471 542 37,000  Level FlightAware ADS-B
Tue 01:36:37 AM 8.0790 -74.7600 138° Southeast 471 542 37,000  Level FlightAware ADS-B
Tue 01:37:12 AM 8.0200 -74.7060 138° Southeast 472 543 37,000  Level FlightAware ADS-B
Tue 01:37:57 AM 7.9440 -74.6370 138° Southeast 472 543 37,000  Level FlightAware ADS-B
Tue 01:38:37 AM 7.8790 -74.5780 138° Southeast 470 541 37,000  Level FlightAware ADS-B
Tue 01:39:17 AM 7.8160 -74.5200 138° Southeast 469 540 37,000  Level FlightAware ADS-B
Tue 01:40:02 AM 7.7420 -74.4530 138° Southeast 466 536 37,000  Level FlightAware ADS-B
Tue 01:40:42 AM 7.6790 -74.3960 138° Southeast 467 537 37,000  Level FlightAware ADS-B
Tue 01:41:22 AM 7.6150 -74.3380 138° Southeast 468 539 37,000  Level FlightAware ADS-B
Tue 01:42:02 AM 7.5530 -74.2810 138° Southeast 467 537 37,000  Level FlightAware ADS-B
Tue 01:42:42 AM 7.4860 -74.2210 138° Southeast 467 537 37,000  Level FlightAware ADS-B
Tue 01:43:27 AM 7.4140 -74.1550 138° Southeast 467 537 37,000  Level FlightAware ADS-B
Tue 01:44:07 AM 7.3490 -74.0960 138° Southeast 467 537 37,000  Level FlightAware ADS-B
Tue 01:44:47 AM 7.2860 -74.0390 138° Southeast 469 540 37,000  Level FlightAware ADS-B
Tue 01:45:23 AM 7.2320 -73.9900 138° Southeast 471 542 37,000  Level FlightAware ADS-B
Tue 01:46:01 AM 7.1800 -73.9430 138° Southeast 471 542 37,000  Level FlightAware ADS-B
Tue 01:46:52 AM 7.0870 -73.8580 138° Southeast 472 543 37,000  Level FlightAware ADS-B
Tue 01:47:32 AM 7.0140 -73.8000 142° Southeast 473 544 37,000  Level FlightAware ADS-B
Tue 01:48:12 AM 6.9360 -73.7550 150° Southeast 475 547 37,000  Level FlightAware ADS-B
Tue 01:48:52 AM 6.8630 -73.7150 151° Southeast 474 545 37,000  Level FlightAware ADS-B
Tue 01:49:37 AM 6.7730 -73.6680 153° Southeast 471 542 37,000  Level FlightAware ADS-B
Tue 01:50:19 AM 6.6900 -73.6230 152° Southeast 470 541 37,000  Level FlightAware ADS-B
Tue 01:51:03 AM 6.6070 -73.5770 151° Southeast 470 541 37,000  Level FlightAware ADS-B
Tue 01:51:45 AM 6.5250 -73.5330 152° Southeast 471 542 37,000  Level FlightAware ADS-B
Tue 01:52:25 AM 6.4480 -73.4910 152° Southeast 470 541 37,000  Level FlightAware ADS-B
Tue 01:53:07 AM 6.3660 -73.4470 152° Southeast 472 543 37,000  Level FlightAware ADS-B
Tue 01:53:53 AM 6.2790 -73.4000 152° Southeast 473 544 37,000  Level FlightAware ADS-B
Tue 01:54:23 AM 6.2200 -73.3680 152° Southeast 474 545 37,000  Level FlightAware ADS-B
Tue 01:55:09 AM 6.1320 -73.3210 152° Southeast 474 545 37,000  Level FlightAware ADS-B
Tue 01:55:42 AM 6.0760 -73.2900 151° Southeast 474 545 37,000  Level FlightAware ADS-B
Tue 01:56:30 AM 5.9980 -73.2460 151° Southeast 474 545 37,000  Level FlightAware ADS-B
Tue 01:57:30 AM 5.9000 -73.1920 151° Southeast 474 545 37,000  Level FlightAware ADS-B
Tue 01:58:06 AM 5.8410 -73.1590 151° Southeast 474 545 37,000  Level FlightAware ADS-B
Tue 01:58:54 AM 5.7630 -73.1160 151° Southeast 474 545 37,000  Level FlightAware ADS-B
Tue 01:59:23 AM 5.6430 -73.0570 154° Southeast 463 533 37,000  Level FlightAware ADS-B
Tue 01:59:55 AM 5.5840 -73.0250 152° Southeast 464 534 37,000  Level FlightAware ADS-B
Tue 02:01:05 AM 5.4500 -72.9530 152° Southeast 466 536 37,000  Level FlightAware ADS-B
Tue 02:01:49 AM 5.3650 -72.9080 152° Southeast 466 536 37,000  Level FlightAware ADS-B
Tue 02:02:31 AM 5.2860 -72.8650 152° Southeast 465 535 37,000  Level FlightAware ADS-B
Tue 02:03:15 AM 5.2030 -72.8200 152° Southeast 468 539 37,000  Level FlightAware ADS-B
Tue 02:03:55 AM 5.1240 -72.7780 152° Southeast 470 541 37,000  Level FlightAware ADS-B
Tue 02:04:46 AM 5.0340 -72.7290 152° Southeast 470 541 37,000  Level FlightAware ADS-B
Tue 02:05:22 AM 4.9760 -72.6970 151° Southeast 470 541 37,000  Level FlightAware ADS-B
Tue 02:06:10 AM 4.8990 -72.6540 151° Southeast 470 541 37,000  Level FlightAware ADS-B
Tue 02:06:46 AM 4.8400 -72.6210 151° Southeast 470 541 37,000  Level FlightAware ADS-B
Tue 02:07:22 AM 4.7820 -72.5890 151° Southeast 470 541 37,000  Level FlightAware ADS-B
Tue 02:08:10 AM 4.7050 -72.5460 151° Southeast 470 541 37,000  Level FlightAware ADS-B
Tue 02:08:46 AM 4.6460 -72.5130 151° Southeast 470 541 37,000  Level FlightAware ADS-B
Tue 02:09:34 AM 4.5690 -72.4700 151° Southeast 470 541 37,000  Level FlightAware ADS-B
Tue 02:10:10 AM 4.5110 -72.4380 151° Southeast 470 541 37,000  Level FlightAware ADS-B
Tue 02:10:58 AM 4.4330 -72.3950 151° Southeast 470 541 37,000  Level FlightAware ADS-B
Tue 02:11:34 AM 4.3750 -72.3620 150° Southeast 470 541 37,000  Level FlightAware ADS-B
Tue 02:12:22 AM 4.2970 -72.3190 151° Southeast 470 541 37,000  Level FlightAware ADS-B
Tue 02:13:10 AM 4.2200 -72.2760 151° Southeast 470 541 37,000  Level FlightAware ADS-B
Tue 02:13:46 AM 4.1620 -72.2440 151° Southeast 470 541 37,000 -10 Level FlightAware ADS-B
Tue 02:16:00 AM 3.9014 -72.1107 145° Southeast  Level FlightAware Approximate
Tue 02:17:00 AM 3.7942 -72.0348 145° Southeast  Level FlightAware Approximate
Tue 02:18:00 AM 3.6871 -71.9591 145° Southeast  Level FlightAware Approximate
Tue 02:19:00 AM 3.5801 -71.8833 145° Southeast  Level FlightAware Approximate
Tue 02:20:00 AM 3.4730 -71.8076 145° Southeast  Level FlightAware Approximate
Tue 02:21:00 AM 3.3659 -71.7319 145° Southeast  Level FlightAware Approximate
Tue 02:22:00 AM 3.2588 -71.6562 145° Southeast  Level FlightAware Approximate
Tue 02:23:00 AM 3.1516 -71.5807 145° Southeast  Level FlightAware Approximate
Tue 02:24:00 AM 3.0444 -71.5053 145° Southeast  Level FlightAware Approximate
Tue 02:25:00 AM 2.9371 -71.4299 145° Southeast  Level FlightAware Approximate
Tue 02:26:00 AM 2.8299 -71.3544 145° Southeast  Level FlightAware Approximate
Tue 02:27:00 AM 2.7226 -71.2790 145° Southeast  Level FlightAware Approximate
Tue 02:28:00 AM 2.6154 -71.2036 145° Southeast  Level FlightAware Approximate
Tue 02:29:00 AM 2.5081 -71.1283 145° Southeast  Level FlightAware Approximate
Tue 02:30:00 AM 2.4008 -71.0529 145° Southeast  Level FlightAware Approximate
Tue 02:31:00 AM 2.2936 -70.9775 145° Southeast  Level FlightAware Approximate
Tue 02:32:00 AM 2.1863 -70.9022 145° Southeast  Level FlightAware Approximate
Tue 02:33:00 AM 2.0790 -70.8268 145° Southeast  Level FlightAware Approximate
Tue 02:34:00 AM 1.9717 -70.7515 145° Southeast  Level FlightAware Approximate
Tue 02:35:00 AM 1.8644 -70.6762 145° Southeast  Level FlightAware Approximate
Tue 02:36:00 AM 1.7572 -70.6009 145° Southeast  Level FlightAware Approximate
Tue 02:37:00 AM 1.6499 -70.5256 145° Southeast  Level FlightAware Approximate
Tue 02:38:00 AM 1.5426 -70.4503 145° Southeast  Level FlightAware Approximate
Tue 02:39:00 AM 1.4353 -70.3750 145° Southeast  Level FlightAware Approximate
Tue 02:40:00 AM 1.3280 -70.2997 145° Southeast  Level FlightAware Approximate
Tue 02:41:00 AM 1.2218 -70.2231 138° Southeast  Level FlightAware Approximate
Tue 02:42:00 AM 1.1239 -70.1359 138° Southeast  Level FlightAware Approximate
Tue 02:43:00 AM 1.0260 -70.0487 138° Southeast  Level FlightAware Approximate
Tue 02:44:00 AM 0.9281 -69.9616 138° Southeast  Level FlightAware Approximate
Tue 02:45:00 AM 0.8302 -69.8744 138° Southeast  Level FlightAware Approximate
Tue 02:46:00 AM 0.7323 -69.7873 138° Southeast  Level FlightAware Approximate
Tue 02:47:00 AM 0.6344 -69.7001 138° Southeast  Level FlightAware Approximate
Tue 02:48:00 AM 0.5365 -69.6130 138° Southeast  Level FlightAware Approximate
Tue 02:49:00 AM 0.4386 -69.5259 138° Southeast  Level FlightAware Approximate
Tue 02:50:00 AM 0.3407 -69.4388 138° Southeast  Level FlightAware Approximate
Tue 02:51:00 AM 0.2428 -69.3516 138° Southeast  Level FlightAware Approximate
Tue 02:52:00 AM 0.1449 -69.2645 138° Southeast  Level FlightAware Approximate
Tue 02:53:00 AM 0.0470 -69.1774 138° Southeast  Level FlightAware Approximate
Tue 02:54:00 AM -0.0509 -69.0902 138° Southeast  Level FlightAware Approximate
Tue 02:55:00 AM -0.1488 -69.0031 138° Southeast  Level FlightAware Approximate
Tue 02:56:00 AM -0.2467 -68.9160 138° Southeast  Level FlightAware Approximate
Tue 02:57:00 AM -0.3446 -68.8288 138° Southeast  Level FlightAware Approximate
Tue 02:58:00 AM -0.4425 -68.7417 138° Southeast  Level FlightAware Approximate
Tue 02:59:00 AM -0.5404 -68.6546 138° Southeast  Level FlightAware Approximate
Tue 03:00:00 AM -0.6383 -68.5674 138° Southeast  Level FlightAware Approximate
Tue 03:01:00 AM -0.7362 -68.4803 138° Southeast  Level FlightAware Approximate
Tue 03:02:00 AM -0.8341 -68.3932 138° Southeast  Level FlightAware Approximate
Tue 03:03:00 AM -0.9320 -68.3060 138° Southeast  Level FlightAware Approximate
Tue 03:04:00 AM -1.0299 -68.2189 138° Southeast  Level FlightAware Approximate
Tue 03:05:00 AM -1.1278 -68.1317 138° Southeast  Level FlightAware Approximate
Tue 03:06:00 AM -1.2257 -68.0445 138° Southeast  Level FlightAware Approximate
Tue 03:07:00 AM -1.3235 -67.9574 138° Southeast  Level FlightAware Approximate
Tue 03:08:00 AM -1.4214 -67.8702 138° Southeast  Level FlightAware Approximate
Tue 03:09:00 AM -1.5193 -67.7830 138° Southeast  Level FlightAware Approximate
Tue 03:10:00 AM -1.6172 -67.6958 138° Southeast  Level FlightAware Approximate
Tue 03:11:00 AM -1.7151 -67.6086 138° Southeast  Level FlightAware Approximate
Tue 03:12:00 AM -1.8129 -67.5214 138° Southeast  Level FlightAware Approximate
Tue 03:13:00 AM -1.9108 -67.4342 138° Southeast  Level FlightAware Approximate
Tue 03:14:00 AM -2.0087 -67.3470 138° Southeast  Level FlightAware Approximate
Tue 03:15:00 AM -2.1065 -67.2597 138° Southeast  Level FlightAware Approximate
Tue 03:16:00 AM -2.2043 -67.1725 138° Southeast  Level FlightAware Approximate
Tue 03:17:00 AM -2.3022 -67.0852 138° Southeast  Level FlightAware Approximate
Tue 03:18:00 AM -2.4000 -66.9979 138° Southeast  Level FlightAware Approximate
Tue 03:19:00 AM -2.4979 -66.9107 138° Southeast  Level FlightAware Approximate
Tue 03:20:00 AM -2.5957 -66.8233 138° Southeast  Level FlightAware Approximate
Tue 03:21:00 AM -2.6935 -66.7360 138° Southeast  Level FlightAware Approximate
Tue 03:22:00 AM -2.7913 -66.6487 138° Southeast  Level FlightAware Approximate
Tue 03:23:00 AM -2.8891 -66.5614 138° Southeast  Level FlightAware Approximate
Tue 03:24:00 AM -2.9869 -66.4740 138° Southeast  Level FlightAware Approximate
Tue 03:25:00 AM -3.0847 -66.3866 138° Southeast  Level FlightAware Approximate
Tue 03:26:00 AM -3.1825 -66.2992 138° Southeast  Level FlightAware Approximate
Tue 03:27:00 AM -3.2803 -66.2119 138° Southeast  Level FlightAware Approximate
Tue 03:28:00 AM -3.3781 -66.1244 138° Southeast  Level FlightAware Approximate
Tue 03:29:00 AM -3.4759 -66.0370 138° Southeast  Level FlightAware Approximate
Tue 03:30:00 AM -3.5736 -65.9495 138° Southeast  Level FlightAware Approximate
Tue 03:31:00 AM -3.6714 -65.8621 138° Southeast  Level FlightAware Approximate
Tue 03:32:00 AM -3.7691 -65.7746 138° Southeast  Level FlightAware Approximate
Tue 03:33:00 AM -3.8668 -65.6870 138° Southeast  Level FlightAware Approximate
Tue 03:34:00 AM -3.9646 -65.5995 138° Southeast  Level FlightAware Approximate
Tue 03:35:00 AM -4.0623 -65.5119 138° Southeast  Level FlightAware Approximate
Tue 03:36:00 AM -4.1600 -65.4243 138° Southeast  Level FlightAware Approximate
Tue 03:37:00 AM -4.2577 -65.3367 138° Southeast  Level FlightAware Approximate
Tue 03:38:00 AM -4.3554 -65.2491 138° Southeast  Level FlightAware Approximate
Tue 03:39:00 AM -4.4530 -65.1615 138° Southeast  Level FlightAware Approximate
Tue 03:40:00 AM -4.5507 -65.0738 138° Southeast  Level FlightAware Approximate
Tue 03:41:00 AM -4.6483 -64.9861 138° Southeast  Level FlightAware Approximate
Tue 03:42:00 AM -4.7460 -64.8984 138° Southeast  Level FlightAware Approximate
Tue 03:43:00 AM -4.8436 -64.8107 138° Southeast  Level FlightAware Approximate
Tue 03:44:00 AM -4.9412 -64.7229 138° Southeast  Level FlightAware Approximate
Tue 03:45:00 AM -5.0388 -64.6351 138° Southeast  Level FlightAware Approximate
Tue 03:46:00 AM -5.1364 -64.5473 138° Southeast  Level FlightAware Approximate
Tue 03:47:00 AM -5.2340 -64.4594 138° Southeast  Level FlightAware Approximate
Tue 03:48:00 AM -5.3316 -64.3716 138° Southeast  Level FlightAware Approximate
Tue 03:49:00 AM -5.4292 -64.2837 138° Southeast  Level FlightAware Approximate
Tue 03:50:00 AM -5.5267 -64.1957 138° Southeast  Level FlightAware Approximate
Tue 03:51:00 AM -5.6242 -64.1078 138° Southeast  Level FlightAware Approximate
Tue 03:52:00 AM -5.7218 -64.0198 138° Southeast  Level FlightAware Approximate
Tue 03:53:00 AM -5.8193 -63.9318 138° Southeast  Level FlightAware Approximate
Tue 03:54:00 AM -5.9168 -63.8437 138° Southeast  Level FlightAware Approximate
Tue 03:55:00 AM -6.0142 -63.7556 138° Southeast  Level FlightAware Approximate
Tue 03:56:00 AM -6.1117 -63.6675 138° Southeast  Level FlightAware Approximate
Tue 03:57:00 AM -6.2092 -63.5794 138° Southeast  Level FlightAware Approximate
Tue 03:58:00 AM -6.3066 -63.4912 138° Southeast  Level FlightAware Approximate
Tue 03:59:00 AM -6.4040 -63.4030 138° Southeast  Level FlightAware Approximate
Tue 04:00:00 AM -6.5014 -63.3148 138° Southeast  Level FlightAware Approximate
Tue 04:01:00 AM -6.5988 -63.2265 138° Southeast  Level FlightAware Approximate
Tue 04:02:00 AM -6.6962 -63.1382 138° Southeast  Level FlightAware Approximate
Tue 04:03:00 AM -6.7936 -63.0498 138° Southeast  Level FlightAware Approximate
Tue 04:04:00 AM -6.8909 -62.9615 138° Southeast  Level FlightAware Approximate
Tue 04:05:00 AM -6.9882 -62.8730 138° Southeast  Level FlightAware Approximate
Tue 04:06:00 AM -7.0855 -62.7846 138° Southeast  Level FlightAware Approximate
Tue 04:07:00 AM -7.1828 -62.6961 138° Southeast  Level FlightAware Approximate
Tue 04:08:00 AM -7.2801 -62.6076 138° Southeast  Level FlightAware Approximate
Tue 04:09:00 AM -7.3774 -62.5190 138° Southeast  Level FlightAware Approximate
Tue 04:10:00 AM -7.4746 -62.4304 138° Southeast  Level FlightAware Approximate
Tue 04:11:00 AM -7.5719 -62.3417 138° Southeast  Level FlightAware Approximate
Tue 04:12:00 AM -7.6691 -62.2531 138° Southeast  Level FlightAware Approximate
Tue 04:13:00 AM -7.7663 -62.1643 138° Southeast  Level FlightAware Approximate
Tue 04:14:00 AM -7.8634 -62.0756 138° Southeast  Level FlightAware Approximate
Tue 04:15:00 AM -7.9606 -61.9867 138° Southeast  Level FlightAware Approximate
Tue 04:16:00 AM -8.0577 -61.8979 138° Southeast  Level FlightAware Approximate
Tue 04:17:00 AM -8.1548 -61.8090 138° Southeast  Level FlightAware Approximate
Tue 04:18:00 AM -8.2519 -61.7201 138° Southeast  Level FlightAware Approximate
Tue 04:19:00 AM -8.3490 -61.6311 138° Southeast  Level FlightAware Approximate
Tue 04:20:00 AM -8.4462 -61.5419 138° Southeast  Level FlightAware Approximate
Tue 04:21:00 AM -8.5435 -61.4527 138° Southeast  Level FlightAware Approximate
Tue 04:22:00 AM -8.6406 -61.3634 138° Southeast  Level FlightAware Approximate
Tue 04:23:00 AM -8.7378 -61.2741 138° Southeast  Level FlightAware Approximate
Tue 04:24:00 AM -8.8350 -61.1847 138° Southeast  Level FlightAware Approximate
Tue 04:25:00 AM -8.9321 -61.0953 138° Southeast  Level FlightAware Approximate
Tue 04:26:00 AM -9.0292 -61.0058 138° Southeast  Level FlightAware Approximate
Tue 04:27:00 AM -9.1263 -60.9163 138° Southeast  Level FlightAware Approximate
Tue 04:28:00 AM -9.2233 -60.8268 138° Southeast  Level FlightAware Approximate
Tue 04:29:00 AM -9.3204 -60.7372 138° Southeast  Level FlightAware Approximate
Tue 04:30:00 AM -9.4174 -60.6475 138° Southeast  Level FlightAware Approximate
Tue 04:31:00 AM -9.5144 -60.5578 138° Southeast  Level FlightAware Approximate
Tue 04:32:00 AM -9.6113 -60.4680 138° Southeast  Level FlightAware Approximate
Tue 04:33:00 AM -9.7083 -60.3782 138° Southeast  Level FlightAware Approximate
Tue 04:34:00 AM -9.8052 -60.2884 138° Southeast  Level FlightAware Approximate
Tue 04:35:00 AM -9.9021 -60.1984 138° Southeast  Level FlightAware Approximate
Tue 04:36:00 AM -9.9990 -60.1085 138° Southeast  Level FlightAware Approximate
Tue 04:37:00 AM -10.0958 -60.0185 138° Southeast  Level FlightAware Approximate
Tue 04:38:00 AM -10.1926 -59.9284 138° Southeast  Level FlightAware Approximate
Tue 04:39:00 AM -10.2894 -59.8383 138° Southeast  Level FlightAware Approximate
Tue 04:40:00 AM -10.3862 -59.7481 137° Southeast  Level FlightAware Approximate
Tue 04:41:00 AM -10.4830 -59.6578 137° Southeast  Level FlightAware Approximate
Tue 04:42:00 AM -10.5797 -59.5675 137° Southeast  Level FlightAware Approximate
Tue 04:43:00 AM -10.6762 -59.4773 137° Southeast  Level FlightAware Approximate
Tue 04:44:00 AM -10.7727 -59.3871 137° Southeast  Level FlightAware Approximate
Tue 04:45:00 AM -10.8692 -59.2968 137° Southeast  Level FlightAware Approximate
Tue 04:46:00 AM -10.9657 -59.2064 137° Southeast  Level FlightAware Approximate
Tue 04:47:00 AM -11.0621 -59.1160 137° Southeast  Level FlightAware Approximate
Tue 04:48:00 AM -11.1585 -59.0255 137° Southeast  Level FlightAware Approximate
Tue 04:49:00 AM -11.2549 -58.9350 137° Southeast  Level FlightAware Approximate
Tue 04:50:00 AM -11.3512 -58.8443 137° Southeast  Level FlightAware Approximate
Tue 04:51:00 AM -11.4475 -58.7537 137° Southeast  Level FlightAware Approximate
Tue 04:52:00 AM -11.5438 -58.6629 137° Southeast  Level FlightAware Approximate
Tue 04:53:00 AM -11.6401 -58.5722 137° Southeast  Level FlightAware Approximate
Tue 04:54:00 AM -11.7363 -58.4813 137° Southeast  Level FlightAware Approximate
Tue 04:55:00 AM -11.8325 -58.3904 137° Southeast  Level FlightAware Approximate
Tue 04:56:00 AM -11.9287 -58.2994 137° Southeast  Level FlightAware Approximate
Tue 04:57:00 AM -12.0248 -58.2083 137° Southeast  Level FlightAware Approximate
Tue 04:58:00 AM -12.1209 -58.1172 137° Southeast  Level FlightAware Approximate
Tue 04:59:00 AM -12.2170 -58.0261 137° Southeast  Level FlightAware Approximate
Tue 05:00:00 AM -12.3131 -57.9348 137° Southeast  Level FlightAware Approximate
Tue 05:01:00 AM -12.4091 -57.8435 137° Southeast  Level FlightAware Approximate
Tue 05:02:00 AM -12.5051 -57.7521 137° Southeast  Level FlightAware Approximate
Tue 05:03:00 AM -12.6011 -57.6607 137° Southeast  Level FlightAware Approximate
Tue 05:04:00 AM -12.6970 -57.5691 137° Southeast  Level FlightAware Approximate
Tue 05:05:00 AM -12.7929 -57.4776 137° Southeast  Level FlightAware Approximate
Tue 05:06:00 AM -12.8888 -57.3859 137° Southeast  Level FlightAware Approximate
Tue 05:07:00 AM -12.9846 -57.2942 137° Southeast  Level FlightAware Approximate
Tue 05:08:00 AM -13.0804 -57.2024 137° Southeast  Level FlightAware Approximate
Tue 05:09:00 AM -13.1762 -57.1105 137° Southeast  Level FlightAware Approximate
Tue 05:10:00 AM -13.2719 -57.0186 137° Southeast  Level FlightAware Approximate
Tue 05:11:00 AM -13.3676 -56.9266 137° Southeast  Level FlightAware Approximate
Tue 05:12:00 AM -13.4633 -56.8345 137° Southeast  Level FlightAware Approximate
Tue 05:13:00 AM -13.5590 -56.7424 137° Southeast  Level FlightAware Approximate
Tue 05:14:00 AM -13.6546 -56.6501 137° Southeast  Level FlightAware Approximate
Tue 05:15:00 AM -13.7501 -56.5578 137° Southeast  Level FlightAware Approximate
Tue 05:16:00 AM -13.8457 -56.4654 137° Southeast  Level FlightAware Approximate
Tue 05:17:00 AM -13.9412 -56.3730 137° Southeast  Level FlightAware Approximate
Tue 05:18:00 AM -14.0366 -56.2804 137° Southeast  Level FlightAware Approximate
Tue 05:19:00 AM -14.1321 -56.1878 137° Southeast  Level FlightAware Approximate
Tue 05:20:00 AM -14.2275 -56.0951 137° Southeast  Level FlightAware Approximate
Tue 05:21:00 AM -14.3228 -56.0024 137° Southeast  Level FlightAware Approximate
Tue 05:22:00 AM -14.4182 -55.9095 137° Southeast  Level FlightAware Approximate
Tue 05:23:00 AM -14.5134 -55.8166 137° Southeast  Level FlightAware Approximate
Tue 05:24:00 AM -14.6087 -55.7236 137° Southeast  Level FlightAware Approximate
Tue 05:25:00 AM -14.7039 -55.6305 137° Southeast  Level FlightAware Approximate
Tue 05:26:00 AM -14.7991 -55.5373 137° Southeast  Level FlightAware Approximate
Tue 05:27:00 AM -14.8942 -55.4441 137° Southeast  Level FlightAware Approximate
Tue 05:28:00 AM -14.9893 -55.3507 137° Southeast  Level FlightAware Approximate
Tue 05:29:00 AM -15.0844 -55.2573 137° Southeast  Level FlightAware Approximate
Tue 05:30:00 AM -15.1794 -55.1638 136° Southeast  Level FlightAware Approximate
Tue 05:31:00 AM -15.2744 -55.0703 136° Southeast  Level FlightAware Approximate
Tue 05:32:00 AM -15.3694 -54.9766 136° Southeast  Level FlightAware Approximate
Tue 05:33:00 AM -15.4643 -54.8828 136° Southeast  Level FlightAware Approximate
Tue 05:34:00 AM -15.5592 -54.7890 136° Southeast  Level FlightAware Approximate
Tue 05:35:00 AM -15.6540 -54.6951 136° Southeast  Level FlightAware Approximate
Tue 05:36:00 AM -15.7488 -54.6011 136° Southeast  Level FlightAware Approximate
Tue 05:37:00 AM -15.8435 -54.5070 136° Southeast  Level FlightAware Approximate
Tue 05:38:00 AM -15.9382 -54.4128 136° Southeast  Level FlightAware Approximate
Tue 05:39:00 AM -16.0329 -54.3185 136° Southeast  Level FlightAware Approximate
Tue 05:40:00 AM -16.1275 -54.2241 136° Southeast  Level FlightAware Approximate
Tue 05:41:00 AM -16.2221 -54.1297 136° Southeast  Level FlightAware Approximate
Tue 05:42:00 AM -16.3167 -54.0351 136° Southeast  Level FlightAware Approximate
Tue 05:43:00 AM -16.4112 -53.9405 136° Southeast  Level FlightAware Approximate
Tue 05:44:00 AM -16.5056 -53.8457 136° Southeast  Level FlightAware Approximate
Tue 05:45:00 AM -16.6001 -53.7509 136° Southeast  Level FlightAware Approximate
Tue 05:46:00 AM -16.6944 -53.6560 136° Southeast  Level FlightAware Approximate
Tue 05:47:00 AM -16.7888 -53.5610 136° Southeast  Level FlightAware Approximate
Tue 05:48:00 AM -16.8831 -53.4659 136° Southeast  Level FlightAware Approximate
Tue 05:49:00 AM -16.9773 -53.3707 136° Southeast  Level FlightAware Approximate
Tue 05:50:00 AM -17.0715 -53.2754 136° Southeast  Level FlightAware Approximate
Tue 05:51:00 AM -17.1657 -53.1800 136° Southeast  Level FlightAware Approximate
Tue 05:52:00 AM -17.2598 -53.0845 136° Southeast  Level FlightAware Approximate
Tue 05:53:00 AM -17.3538 -52.9889 136° Southeast  Level FlightAware Approximate
Tue 05:54:00 AM -17.4479 -52.8932 136° Southeast  Level FlightAware Approximate
Tue 05:55:00 AM -17.5418 -52.7975 136° Southeast  Level FlightAware Approximate
Tue 05:56:00 AM -17.6358 -52.7016 136° Southeast  Level FlightAware Approximate
Tue 05:57:00 AM -17.7296 -52.6056 136° Southeast  Level FlightAware Approximate
Tue 05:58:00 AM -17.8235 -52.5095 136° Southeast  Level FlightAware Approximate
Tue 05:59:00 AM -17.9173 -52.4133 136° Southeast  Level FlightAware Approximate
Tue 06:00:00 AM -18.0110 -52.3171 136° Southeast  Level FlightAware Approximate
Tue 06:01:00 AM -18.1047 -52.2207 136° Southeast  Level FlightAware Approximate
Tue 06:02:00 AM -18.1984 -52.1242 136° Southeast  Level FlightAware Approximate
Tue 06:03:00 AM -18.2920 -52.0276 136° Southeast  Level FlightAware Approximate
Tue 06:04:00 AM -18.3855 -51.9309 136° Southeast  Level FlightAware Approximate
Tue 06:05:00 AM -18.4790 -51.8341 136° Southeast  Level FlightAware Approximate
Tue 06:06:00 AM -18.5725 -51.7372 135° Southeast  Level FlightAware Approximate
Tue 06:07:00 AM -18.6658 -51.6401 135° Southeast  Level FlightAware Approximate
Tue 06:08:00 AM -18.7592 -51.5430 135° Southeast  Level FlightAware Approximate
Tue 06:09:00 AM -18.8525 -51.4458 135° Southeast  Level FlightAware Approximate
Tue 06:09:50 AM -19.0840 -50.5790 135° Southeast 540 621 34,600  Level FlightAware ADS-B
Tue 06:10:00 AM -18.9457 -51.3484 135° Southeast  Level FlightAware Approximate
Tue 06:10:27 AM -19.1470 -50.5100 134° Southeast 546 628 33,400  Level FlightAware ADS-B
Tue 06:11:01 AM -19.2070 -50.4440 134° Southeast 544 626 32,000 -2,488 Descending FlightAware ADS-B
Tue 06:11:49 AM -19.2880 -50.3560 134° Southeast 507 583 30,000 -2,143 Descending FlightAware ADS-B
Tue 06:12:25 AM -19.3470 -50.2910 134° Southeast 495 570 29,000 -732 Descending FlightAware ADS-B
Tue 06:13:11 AM -19.4210 -50.2100 134° Southeast 500 575 29,000  Level FlightAware ADS-B
Tue 06:13:51 AM -19.4830 -50.1410 134° Southeast 492 566 29,000  Level FlightAware ADS-B
Tue 06:14:39 AM -19.5580 -50.0580 134° Southeast 492 566 29,000  Level FlightAware ADS-B
Tue 06:15:16 AM -19.6180 -49.9930 134° Southeast 490 564 29,000  Level FlightAware ADS-B
Tue 06:15:57 AM -19.6830 -49.9220 134° Southeast 489 563 29,000  Level FlightAware ADS-B
Tue 06:16:33 AM -19.7400 -49.8600 134° Southeast 490 564 29,000  Level FlightAware ADS-B
Tue 06:17:11 AM -19.8000 -49.7940 134° Southeast 490 564 29,000  Level FlightAware ADS-B
Tue 06:17:46 AM -19.8520 -49.7370 134° Southeast 490 564 29,000  Level FlightAware ADS-B
Tue 06:18:37 AM -19.9360 -49.6450 134° Southeast 492 566 29,000  Level FlightAware ADS-B
Tue 06:19:17 AM -20.0000 -49.5750 134° Southeast 492 566 29,000  Level FlightAware ADS-B
Tue 06:19:57 AM -20.0630 -49.5060 134° Southeast 492 566 29,000  Level FlightAware ADS-B
Tue 06:20:43 AM -20.1350 -49.4270 134° Southeast 492 566 29,000  Level FlightAware ADS-B
Tue 06:21:23 AM -20.1990 -49.3560 134° Southeast 492 566 29,000  Level FlightAware ADS-B
Tue 06:22:06 AM -20.2670 -49.2810 134° Southeast 494 568 29,000  Level FlightAware ADS-B
Tue 06:22:41 AM -20.3230 -49.2190 134° Southeast 495 570 29,000  Level FlightAware ADS-B
Tue 06:23:24 AM -20.3910 -49.1440 134° Southeast 497 572 29,000  Level FlightAware ADS-B
Tue 06:24:03 AM -20.4540 -49.0740 134° Southeast 497 572 29,000  Level FlightAware ADS-B
Tue 06:24:39 AM -20.5110 -49.0110 134° Southeast 497 572 29,000  Level FlightAware ADS-B
Tue 06:25:17 AM -20.5730 -48.9420 134° Southeast 496 571 29,000  Level FlightAware ADS-B
Tue 06:26:05 AM -20.6480 -48.8590 134° Southeast 496 571 29,000  Level FlightAware ADS-B
Tue 06:26:45 AM -20.7110 -48.7880 133° Southeast 495 570 29,000  Level FlightAware ADS-B
Tue 06:27:29 AM -20.7820 -48.7090 134° Southeast 497 572 29,000  Level FlightAware ADS-B
Tue 06:28:09 AM -20.8450 -48.6380 134° Southeast 498 573 29,000  Level FlightAware ADS-B
Tue 06:28:49 AM -20.9090 -48.5670 134° Southeast 498 573 29,000  Level FlightAware ADS-B
Tue 06:29:25 AM -20.9670 -48.5020 134° Southeast 500 575 29,000  Level FlightAware ADS-B
Tue 06:30:11 AM -21.0410 -48.4180 133° Southeast 502 578 29,000  Level FlightAware ADS-B
Tue 06:30:49 AM -21.1010 -48.3500 133° Southeast 502 578 29,000  Level FlightAware ADS-B
Tue 06:31:27 AM -21.1610 -48.2820 133° Southeast 501 577 29,000  Level FlightAware ADS-B
Tue 06:32:07 AM -21.2250 -48.2100 134° Southeast 501 577 29,000  Level FlightAware ADS-B
Tue 06:32:49 AM -21.3010 -48.1460 142° Southeast 499 574 29,000  Level FlightAware ADS-B
Tue 06:33:33 AM -21.3830 -48.0790 143° Southeast 500 575 29,000  Level FlightAware ADS-B
Tue 06:34:13 AM -21.4570 -48.0180 143° Southeast 500 575 29,000  Level FlightAware ADS-B
Tue 06:34:54 AM -21.5320 -47.9580 143° Southeast 503 579 29,000  Level FlightAware ADS-B
Tue 06:35:39 AM -21.6160 -47.8890 143° Southeast 504 580 29,000  Level FlightAware ADS-B
Tue 06:36:19 AM -21.6900 -47.8280 143° Southeast 504 580 29,000  Level FlightAware ADS-B
Tue 06:37:03 AM -21.7720 -47.7610 143° Southeast 505 581 29,000 -429 Level FlightAware ADS-B
Tue 06:37:43 AM -21.8460 -47.7000 143° Southeast 500 575 28,400 -1,071 Descending FlightAware ADS-B
Tue 06:38:27 AM -21.9270 -47.6340 143° Southeast 496 571 27,500 -1,286 Descending FlightAware ADS-B
Tue 06:39:07 AM -22.0010 -47.5730 143° Southeast 492 566 26,600 -1,317 Descending FlightAware ADS-B
Tue 06:39:49 AM -22.0760 -47.5120 143° Southeast 487 560 25,700 -1,326 Descending FlightAware ADS-B
Tue 06:40:33 AM -22.1540 -47.4470 142° Southeast 481 554 24,700 -1,244 Descending FlightAware ADS-B
Tue 06:41:11 AM -22.2180 -47.3940 143° Southeast 475 547 24,000 -1,059 Descending FlightAware ADS-B
Tue 06:41:58 AM -22.3020 -47.3260 143° Southeast 470 541 23,200 -1,326 Descending FlightAware ADS-B
Tue 06:42:37 AM -22.3770 -47.2840 153° Southeast 453 521 22,100 -2,127 Descending FlightAware ADS-B
Tue 06:43:17 AM -22.4530 -47.2490 157° South 444 511 20,400 -2,921 Descending FlightAware ADS-B
Tue 06:43:53 AM -22.5180 -47.2150 154° Southeast 428 493 18,400 -3,150 Descending FlightAware ADS-B
Tue 06:44:37 AM -22.5890 -47.1770 154° Southeast 419 482 16,200 -2,278 Descending FlightAware ADS-B
Tue 06:45:12 AM -22.6540 -47.1420 154° Southeast 408 470 15,400 -1,360 Descending FlightAware ADS-B
Tue 06:45:52 AM -22.7210 -47.1070 154° Southeast 400 460 14,500 -1,500 Descending FlightAware ADS-B
Tue 06:46:32 AM -22.7870 -47.0720 154° Southeast 396 456 13,400 -1,680 Descending FlightAware ADS-B
Tue 06:47:32 AM -22.8870 -47.0190 154° Southeast 387 445 11,700 -1,620 Descending FlightAware ADS-B
Tue 06:48:12 AM -22.9510 -47.0050 169° South 373 429 10,700 -1,129 Descending FlightAware ADS-B
Tue 06:48:57 AM -23.0210 -47.0030 178° South 348 400 10,100 -873 Descending FlightAware ADS-B
Tue 06:49:07 AM -23.0420 -46.9970 165° South 346 398 9,900 -750 Descending FlightAware ADS-B
Tue 06:49:37 AM -23.0830 -46.9780 157° South 339 390 9,600 -873 Descending FlightAware ADS-B
Tue 06:50:02 AM -23.1180 -46.9540 148° Southeast 334 384 9,100 -800 Descending FlightAware ADS-B
Tue 06:50:22 AM -23.1430 -46.9350 145° Southeast 328 377 9,000 -514 Descending FlightAware ADS-B
Tue 06:50:37 AM -23.1620 -46.9210 146° Southeast 320 368 8,800 -1,067 Descending FlightAware ADS-B
Tue 06:51:07 AM -23.1980 -46.8930 144° Southeast 314 361 8,200 -1,000 Descending FlightAware ADS-B
Tue 06:51:37 AM -23.2330 -46.8670 146° Southeast 301 346 7,800 -655 Descending FlightAware ADS-B
Tue 06:52:02 AM -23.2610 -46.8460 145° Southeast 289 333 7,600 -533 Descending FlightAware ADS-B
Tue 06:52:22 AM -23.2820 -46.8310 147° Southeast 275 316 7,400 -300 Descending FlightAware ADS-B
Tue 06:52:42 AM -23.3020 -46.8160 145° Southeast 252 290 7,400  Level FlightAware ADS-B
Tue 06:53:07 AM -23.3240 -46.7990 145° Southeast 244 281 7,400 -327 Level FlightAware ADS-B
Tue 06:53:37 AM -23.3530 -46.7770 145° Southeast 239 275 7,100 -480 Descending FlightAware ADS-B
Tue 06:53:57 AM -23.3690 -46.7650 145° Southeast 238 274 7,000 -750 Descending FlightAware ADS-B
Tue 06:54:33 AM -23.4010 -46.7360 140° Southeast 239 275 6,400 -1,031 Descending FlightAware ADS-B
Tue 06:55:01 AM -23.4250 -46.7140 140° Southeast 234 269 5,900 -1,071 Descending FlightAware ADS-B
Tue 06:55:29 AM -23.4470 -46.6910 136° Southeast 220 253 5,400 -737 Descending FlightAware ADS-B
Tue 06:55:58 AM -23.4600 -46.6650 119° Southeast 210 242 5,200 -327 Descending FlightAware ADS-B
Tue 06:56:24 AM -23.4700 -46.6410 114° Southeast 196 226 5,100 -462 Descending FlightAware ADS-B
Tue 06:56:37 AM -23.4740 -46.6280 109° East 193 222 4,900 -1,034 Descending FlightAware ADS-B
Tue 06:56:53 AM -23.4730 -46.6130 86° East 190 219 4,600 -1,050 Descending FlightAware ADS-B
Tue 06:57:17 AM -23.4670 -46.5920 73° East 179 206 4,200 -1,000 Descending FlightAware ADS-B
Tue 06:57:41 AM -23.4610 -46.5710 73° East 164 189 3,800 -923 Descending FlightAware ADS-B
Tue 06:58:09 AM -23.4560 -46.5510 75° East 147 169 3,400 -750 Descending FlightAware ADS-B
Tue 06:58:37 AM -23.4510 -46.5300 75° East 145 167 3,100 -706 Descending FlightAware ADS-B
Tue 06:59:17 AM -23.4430 -46.5030 72° East 143 165 2,600 -831 Descending FlightAware ADS-B
Tue 06:59:42 AM -23.4380 -46.4850 73° East 146 168 2,200 -960 Descending FlightAware ADS-B
Tue 07:00:02 AM -23.4350 -46.4740 73° East 120 138 -6,600 Descending FlightAware ADS-B
Tue 07:00:39 AM -23.4310 -46.4600 73° East 84 97  Level FlightAware ADS-B

Login

Don't have an account? Register now (free) for customized features, flight alerts, and more!